Red House, Nevada
Current Conditions -  °F | °C
As of 5:56 AM on Thursday 30 Oct 2014 (Local Time) from KWMC Reporting Station
Clear Clear  
Wind Chill: 25°   Ceiling: Unl
Heat Index: 32°   Visibility: 10mi
Dew Point: 20°   Wind: 8mph
Humidity: 61%   Direction: 140°SE
Pressure: 30.14"   Gusts: NA
Location:  41.013°N, 117.293°W
Report Text: KWMC 301256Z AUTO 14007KT 10SM CLR 00/M07 A3014 RMK AO2 SLP197 T00001067
Loading
Personal Weather Stations






























Interactive Weather Map
Tropical Storm Tracking
New forecast layout! Learn more

10-Day Weather Forecast

Advertisements
Track Severe Weather on mobile